Lady Christine — WDJ4398 — position and weather

sailwx.info

Track history (hours):
 
Tides and Currents Weather Stations Pressure Air Temp Water Temp Dewpoint Dewpoint Depression Visibility Wind Speed Wind Dir Waves Ship Positions

Lady Christine

Owner: NGUYEN, CU M, LAFAYETTE, LA. More information available from US FCC via Universal Licensing System and Coast Guard Vessel Documentation Center.

Last reported at 2018-Jul-21 09:18 UTC. Time now 2018-Jul-22 06:37 UTC.
Position N 28°36' W 095°21'.

Length 26 m.

Type: Fishing. MMSI: 367777320.

Date/timePositionNaut miles runAvg speedWind from/ knotsBaromVisibWave heightAir tempDewpointWater temp
2018-Jul-21 09:18N 28°36' W 095°21'1 3.1
2018-Jul-21 08:51N 28°36' W 095°22'  
2018-Jul-14 23:36N 29°35' W 093°53'1 7.6
2018-Jul-14 23:29N 29°35' W 093°52'4 7.4
2018-Jul-14 22:59N 29°38' W 093°49'4 7.4
2018-Jul-14 22:30N 29°42' W 093°50'4 7.5
2018-Jul-14 22:00N 29°45' W 093°53'2 3.3
2018-Jul-14 21:29N 29°46' W 093°54'0 0.0
2018-Jul-14 20:59N 29°46' W 093°54'0 0.0
2018-Jul-14 20:29N 29°46' W 093°54'0 0.0
2018-Jul-14 19:59N 29°46' W 093°54'0 0.0
2018-Jul-14 19:26N 29°46' W 093°54'0 0.0
2018-Jul-14 18:59N 29°46' W 093°54'0 0.0
2018-Jul-14 18:29N 29°46' W 093°54'0 0.0
2018-Jul-14 17:59N 29°46' W 093°54'0 0.0
2018-Jul-14 17:29N 29°46' W 093°54'0 0.0
2018-Jul-14 16:59N 29°46' W 093°54'0 0.0
2018-Jul-14 16:29N 29°46' W 093°54'0 0.0
2018-Jul-14 15:56N 29°46' W 093°54'0 0.0
2018-Jul-14 15:29N 29°46' W 093°54'0 0.0
2018-Jul-14 14:59N 29°46' W 093°54'0 0.0
2018-Jul-14 14:29N 29°46' W 093°54'0 0.0
2018-Jul-14 13:29N 29°46' W 093°54'0 0.0
2018-Jul-14 12:59N 29°46' W 093°54'0 0.0
2018-Jul-14 12:29N 29°46' W 093°54'0 0.0
2018-Jul-14 11:59N 29°46' W 093°54'0 0.0
2018-Jul-14 11:29N 29°46' W 093°54'0 0.0
2018-Jul-14 10:59N 29°46' W 093°54'0 0.0
2018-Jul-14 10:29N 29°46' W 093°54'0 0.0
2018-Jul-14 09:59N 29°46' W 093°54'0 0.0
2018-Jul-14 09:29N 29°46' W 093°54'0 0.0
2018-Jul-14 08:59N 29°46' W 093°54'0 0.0
2018-Jul-14 08:29N 29°46' W 093°54'0 0.0
2018-Jul-14 07:59N 29°46' W 093°54'0 0.0
2018-Jul-14 07:29N 29°46' W 093°54'0 0.0
2018-Jul-14 06:59N 29°46' W 093°54'0 0.0
2018-Jul-14 06:28N 29°46' W 093°54'0 0.0
2018-Jul-14 05:58N 29°46' W 093°54'0 0.0
2018-Jul-14 05:28N 29°46' W 093°54'0 0.0
2018-Jul-14 04:58N 29°46' W 093°54'0 0.0
2018-Jul-14 04:28N 29°46' W 093°54'0 0.0
2018-Jul-14 03:58N 29°46' W 093°54'0 0.0
2018-Jul-14 03:28N 29°46' W 093°54'0 0.0
2018-Jul-14 02:58N 29°46' W 093°54'0 0.0
2018-Jul-14 02:28N 29°46' W 093°54'0 0.0
2018-Jul-14 01:58N 29°46' W 093°54'0 0.0
2018-Jul-14 01:28N 29°46' W 093°54'0 0.0
2018-Jul-14 00:58N 29°46' W 093°54'0 0.0
2018-Jul-14 00:28N 29°46' W 093°54'0 0.0
2018-Jul-13 23:58N 29°46' W 093°54'0 0.0
2018-Jul-13 23:28N 29°46' W 093°54'0 0.0
2018-Jul-13 22:58N 29°46' W 093°54'0 0.0
2018-Jul-13 22:28N 29°46' W 093°54'0 0.0
2018-Jul-13 21:58N 29°46' W 093°54'0 0.0
2018-Jul-13 21:28N 29°46' W 093°54'0 0.0
2018-Jul-13 20:58N 29°46' W 093°54'0 0.0
2018-Jul-13 20:28N 29°46' W 093°54'0 0.0
2018-Jul-13 19:58N 29°46' W 093°54'0 0.0
2018-Jul-13 19:28N 29°46' W 093°54'0 0.0
2018-Jul-13 18:58N 29°46' W 093°54'0 0.0
2018-Jul-13 18:28N 29°46' W 093°54'0 0.0
2018-Jul-13 17:58N 29°46' W 093°54'0 0.0
2018-Jul-13 17:28N 29°46' W 093°54'0 0.0
2018-Jul-13 16:58N 29°46' W 093°54'0 0.1
2018-Jul-13 16:28N 29°46' W 093°54'2 3.8
2018-Jul-13 16:00N 29°45' W 093°53'4 7.5
2018-Jul-13 15:30N 29°42' W 093°50'4 7.7
2018-Jul-13 15:00N 29°38' W 093°49'3 2.5
2018-Jul-13 13:44N 29°35' W 093°47'1 4.3
2018-Jul-13 13:30N 29°36' W 093°47'2 0.6
2018-Jul-13 10:52N 29°35' W 093°46'2 2.1
2018-Jul-13 09:57N 29°33' W 093°45'1 2.9
2018-Jul-13 09:30N 29°34' W 093°46'1 2.9
2018-Jul-13 09:00N 29°35' W 093°47'4 1.6
2018-Jul-13 06:38N 29°37' W 093°43'1 2.4
2018-Jul-13 06:15N 29°37' W 093°44'1 2.6
2018-Jul-13 06:00N 29°37' W 093°45'2 2.6
2018-Jul-13 05:22N 29°36' W 093°47'1 2.0
2018-Jul-13 04:58N 29°35' W 093°47'2 2.6
2018-Jul-13 04:09N 29°34' W 093°45'1 2.1
2018-Jul-13 03:53N 29°34' W 093°46'1 3.0
2018-Jul-13 03:25N 29°35' W 093°47'1 1.6
2018-Jul-13 02:58N 29°36' W 093°47'2 1.9
2018-Jul-13 02:08N 29°36' W 093°45'1 3.0
2018-Jul-13 01:57N 29°36' W 093°46'1 3.0
2018-Jul-13 01:31N 29°36' W 093°47'2 0.3
2018-Jul-12 20:23N 29°35' W 093°46'  
Track history (hours):
 
Tides and Currents Weather Stations Pressure Air Temp Water Temp Dewpoint Dewpoint Depression Visibility Wind Speed Wind Dir Waves Ship Positions

Lady Christine

Owner: NGUYEN, CU M, LAFAYETTE, LA. More information available from US FCC via Universal Licensing System and Coast Guard Vessel Documentation Center.

Last reported at 2018-Jul-21 09:18 UTC. Time now 2018-Jul-22 06:37 UTC.
Position N 28°36' W 095°21'.

Length 26 m.

Type: Fishing. MMSI: 367777320.

Date/timePositionNaut miles runAvg speedWind from/ knotsBaromVisibWave heightAir tempDewpointWater temp
2018-Jul-21 09:18N 28°36' W 095°21'1 3.1
2018-Jul-21 08:51N 28°36' W 095°22'  
2018-Jul-14 23:36N 29°35' W 093°53'1 7.6
2018-Jul-14 23:29N 29°35' W 093°52'4 7.4
2018-Jul-14 22:59N 29°38' W 093°49'4 7.4
2018-Jul-14 22:30N 29°42' W 093°50'4 7.5
2018-Jul-14 22:00N 29°45' W 093°53'2 3.3
2018-Jul-14 21:29N 29°46' W 093°54'0 0.0
2018-Jul-14 20:59N 29°46' W 093°54'0 0.0
2018-Jul-14 20:29N 29°46' W 093°54'0 0.0
2018-Jul-14 19:59N 29°46' W 093°54'0 0.0
2018-Jul-14 19:26N 29°46' W 093°54'0 0.0
2018-Jul-14 18:59N 29°46' W 093°54'0 0.0
2018-Jul-14 18:29N 29°46' W 093°54'0 0.0
2018-Jul-14 17:59N 29°46' W 093°54'0 0.0
2018-Jul-14 17:29N 29°46' W 093°54'0 0.0
2018-Jul-14 16:59N 29°46' W 093°54'0 0.0
2018-Jul-14 16:29N 29°46' W 093°54'0 0.0
2018-Jul-14 15:56N 29°46' W 093°54'0 0.0
2018-Jul-14 15:29N 29°46' W 093°54'0 0.0
2018-Jul-14 14:59N 29°46' W 093°54'0 0.0
2018-Jul-14 14:29N 29°46' W 093°54'0 0.0
2018-Jul-14 13:29N 29°46' W 093°54'0 0.0
2018-Jul-14 12:59N 29°46' W 093°54'0 0.0
2018-Jul-14 12:29N 29°46' W 093°54'0 0.0
2018-Jul-14 11:59N 29°46' W 093°54'0 0.0
2018-Jul-14 11:29N 29°46' W 093°54'0 0.0
2018-Jul-14 10:59N 29°46' W 093°54'0 0.0
2018-Jul-14 10:29N 29°46' W 093°54'0 0.0
2018-Jul-14 09:59N 29°46' W 093°54'0 0.0
2018-Jul-14 09:29N 29°46' W 093°54'0 0.0
2018-Jul-14 08:59N 29°46' W 093°54'0 0.0
2018-Jul-14 08:29N 29°46' W 093°54'0 0.0
2018-Jul-14 07:59N 29°46' W 093°54'0 0.0
2018-Jul-14 07:29N 29°46' W 093°54'0 0.0
2018-Jul-14 06:59N 29°46' W 093°54'0 0.0
2018-Jul-14 06:28N 29°46' W 093°54'0 0.0
2018-Jul-14 05:58N 29°46' W 093°54'0 0.0
2018-Jul-14 05:28N 29°46' W 093°54'0 0.0
2018-Jul-14 04:58N 29°46' W 093°54'0 0.0
2018-Jul-14 04:28N 29°46' W 093°54'0 0.0
2018-Jul-14 03:58N 29°46' W 093°54'0 0.0
2018-Jul-14 03:28N 29°46' W 093°54'0 0.0
2018-Jul-14 02:58N 29°46' W 093°54'0 0.0
2018-Jul-14 02:28N 29°46' W 093°54'0 0.0
2018-Jul-14 01:58N 29°46' W 093°54'0 0.0
2018-Jul-14 01:28N 29°46' W 093°54'0 0.0
2018-Jul-14 00:58N 29°46' W 093°54'0 0.0
2018-Jul-14 00:28N 29°46' W 093°54'0 0.0
2018-Jul-13 23:58N 29°46' W 093°54'0 0.0
2018-Jul-13 23:28N 29°46' W 093°54'0 0.0
2018-Jul-13 22:58N 29°46' W 093°54'0 0.0
2018-Jul-13 22:28N 29°46' W 093°54'0 0.0
2018-Jul-13 21:58N 29°46' W 093°54'0 0.0
2018-Jul-13 21:28N 29°46' W 093°54'0 0.0
2018-Jul-13 20:58N 29°46' W 093°54'0 0.0
2018-Jul-13 20:28N 29°46' W 093°54'0 0.0
2018-Jul-13 19:58N 29°46' W 093°54'0 0.0
2018-Jul-13 19:28N 29°46' W 093°54'0 0.0
2018-Jul-13 18:58N 29°46' W 093°54'0 0.0
2018-Jul-13 18:28N 29°46' W 093°54'0 0.0
2018-Jul-13 17:58N 29°46' W 093°54'0 0.0
2018-Jul-13 17:28N 29°46' W 093°54'0 0.0
2018-Jul-13 16:58N 29°46' W 093°54'0 0.1
2018-Jul-13 16:28N 29°46' W 093°54'2 3.8
2018-Jul-13 16:00N 29°45' W 093°53'4 7.5
2018-Jul-13 15:30N 29°42' W 093°50'4 7.7
2018-Jul-13 15:00N 29°38' W 093°49'3 2.5
2018-Jul-13 13:44N 29°35' W 093°47'1 4.3
2018-Jul-13 13:30N 29°36' W 093°47'2 0.6
2018-Jul-13 10:52N 29°35' W 093°46'2 2.1
2018-Jul-13 09:57N 29°33' W 093°45'1 2.9
2018-Jul-13 09:30N 29°34' W 093°46'1 2.9
2018-Jul-13 09:00N 29°35' W 093°47'4 1.6
2018-Jul-13 06:38N 29°37' W 093°43'1 2.4
2018-Jul-13 06:15N 29°37' W 093°44'1 2.6
2018-Jul-13 06:00N 29°37' W 093°45'2 2.6
2018-Jul-13 05:22N 29°36' W 093°47'1 2.0
2018-Jul-13 04:58N 29°35' W 093°47'2 2.6
2018-Jul-13 04:09N 29°34' W 093°45'1 2.1
2018-Jul-13 03:53N 29°34' W 093°46'1 3.0
2018-Jul-13 03:25N 29°35' W 093°47'1 1.6
2018-Jul-13 02:58N 29°36' W 093°47'2 1.9
2018-Jul-13 02:08N 29°36' W 093°45'1 3.0
2018-Jul-13 01:57N 29°36' W 093°46'1 3.0
2018-Jul-13 01:31N 29°36' W 093°47'2 0.3
2018-Jul-12 20:23N 29°35' W 093°46'  

Dump ship's entire track history